Time;durP1;ratioP1;P1;durP2;ratioP2;P2;SDS_P1;SDS_P2;PMS_P1;PMS_P2;Temp;Humidity;BMP_temperature;BMP_pressure;BME280_temperature;BME280_humidity;BME280_pressure;Samples;Min_cycle;Max_cycle;Signal;HPM_P1;HPM_P2
2023/10/27 00:00:07;;;;;;;6.57;2.43;;;;;;;14.98;66.75;95357.28;5039610;28;20175;-69
2023/10/27 00:02:38;;;;;;;3.77;2.10;;;;;;;14.97;66.95;95357.53;5038741;28;20430;-69
2023/10/27 00:05:04;;;;;;;3.27;2.07;;;;;;;14.85;66.93;95355.66;5030878;28;20477;-69
2023/10/27 00:07:29;;;;;;;5.43;2.40;;;;;;;14.87;67.09;95350.94;5038928;28;20451;-69
2023/10/27 00:09:55;;;;;;;4.07;2.00;;;;;;;14.94;66.85;95357.97;5030241;28;20539;-70
2023/10/27 00:12:20;;;;;;;3.10;2.40;;;;;;;14.88;66.95;95355.19;5030640;28;20279;-71
2023/10/27 00:14:46;;;;;;;3.73;2.07;;;;;;;14.87;66.90;95353.59;5032440;28;20274;-70
2023/10/27 00:17:11;;;;;;;6.40;2.67;;;;;;;14.90;66.49;95352.34;5030420;28;20295;-69
2023/10/27 00:19:36;;;;;;;3.27;1.97;;;;;;;14.84;66.54;95340.88;5041480;28;20184;-70
2023/10/27 00:22:02;;;;;;;3.87;2.07;;;;;;;14.82;66.57;95352.66;5038463;28;20271;-69
2023/10/27 00:24:27;;;;;;;9.47;2.73;;;;;;;14.83;66.45;95349.81;5033280;28;20653;-70
2023/10/27 00:26:53;;;;;;;4.70;1.67;;;;;;;14.82;66.17;95350.84;5039485;28;20204;-70
2023/10/27 00:29:18;;;;;;;3.07;1.80;;;;;;;14.77;66.29;95352.53;5028197;28;20195;-69
2023/10/27 00:31:44;;;;;;;3.47;1.73;;;;;;;14.76;66.33;95354.34;5033378;28;20196;-70
2023/10/27 00:34:09;;;;;;;4.27;2.20;;;;;;;14.71;66.69;95351.59;5037590;28;20194;-70
2023/10/27 00:36:34;;;;;;;3.90;2.23;;;;;;;14.73;66.42;95352.19;5020544;28;20200;-70
2023/10/27 00:39:00;;;;;;;4.70;2.17;;;;;;;14.67;66.83;95348.63;5025006;28;20187;-68
2023/10/27 00:41:25;;;;;;;3.73;1.70;;;;;;;14.68;66.58;95354.69;5043940;28;20262;-71
2023/10/27 00:43:51;;;;;;;4.70;2.57;;;;;;;14.67;66.60;95350.41;5036473;28;20183;-70
2023/10/27 00:46:16;;;;;;;3.20;1.93;;;;;;;14.69;66.44;95351.00;5031132;28;20207;-70
2023/10/27 00:48:42;;;;;;;3.90;1.90;;;;;;;14.71;66.22;95344.47;5029774;28;20184;-71
2023/10/27 00:51:09;;;;;;;5.67;1.83;;;;;;;14.69;66.52;95341.25;5045052;28;20240;-69
2023/10/27 00:53:35;;;;;;;3.23;1.93;;;;;;;14.69;66.40;95351.00;5026031;28;20188;-71
2023/10/27 00:56:01;;;;;;;2.17;1.70;;;;;;;14.71;66.47;95354.25;5038914;28;20813;-70
2023/10/27 00:58:27;;;;;;;5.70;2.00;;;;;;;14.78;66.25;95344.41;5032315;28;20208;-69
2023/10/27 01:00:55;;;;;;;2.80;1.70;;;;;;;14.74;65.96;95333.50;5045132;28;21265;-70
2023/10/27 01:03:20;;;;;;;7.20;2.20;;;;;;;14.72;66.21;95325.00;5032488;28;20191;-70
2023/10/27 01:05:45;;;;;;;3.57;1.70;;;;;;;14.71;65.80;95328.66;5029335;28;20803;-70
2023/10/27 01:08:11;;;;;;;3.60;1.93;;;;;;;14.69;65.91;95324.66;5031986;28;20266;-70
2023/10/27 01:10:36;;;;;;;5.97;1.83;;;;;;;14.65;66.16;95331.38;5033345;28;20180;-70
2023/10/27 01:13:02;;;;;;;5.73;1.60;;;;;;;14.61;66.23;95333.66;5034706;28;20222;-70
2023/10/27 01:15:30;;;;;;;2.83;1.90;;;;;;;14.64;66.01;95335.03;5029222;28;20624;-71
2023/10/27 01:17:55;;;;;;;4.20;1.83;;;;;;;14.62;66.00;95329.97;5037309;28;20203;-71
2023/10/27 01:20:20;;;;;;;6.63;2.00;;;;;;;14.59;66.12;95319.88;5037168;28;20942;-69
2023/10/27 01:22:47;;;;;;;3.80;1.63;;;;;;;14.64;66.04;95316.56;5029526;28;20194;-70
2023/10/27 01:25:16;;;;;;;4.90;1.87;;;;;;;14.64;65.95;95319.22;5034879;28;20187;-68
2023/10/27 01:27:42;;;;;;;5.30;1.83;;;;;;;14.65;65.85;95318.19;5037192;28;20426;-71
2023/10/27 01:30:08;;;;;;;7.70;1.67;;;;;;;14.61;66.06;95311.78;5037594;28;20457;-70
2023/10/27 01:32:35;;;;;;;3.63;1.60;;;;;;;14.62;66.06;95303.63;5031552;28;20203;-70
2023/10/27 01:35:00;;;;;;;2.80;1.60;;;;;;;14.62;66.10;95308.91;5033401;28;20431;-69
2023/10/27 01:37:27;;;;;;;3.80;1.70;;;;;;;14.58;66.13;95311.19;5036786;28;20573;-70
2023/10/27 01:39:52;;;;;;;4.40;2.53;;;;;;;14.59;66.14;95307.53;5028443;28;20501;-71
2023/10/27 01:42:18;;;;;;;3.03;1.67;;;;;;;14.58;66.23;95302.47;5031912;28;20241;-69
2023/10/27 01:44:43;;;;;;;6.23;1.70;;;;;;;14.57;66.11;95306.13;5036970;28;20192;-69
2023/10/27 01:47:09;;;;;;;2.97;1.60;;;;;;;14.61;66.25;95304.66;5036515;28;20208;-69
2023/10/27 01:49:34;;;;;;;3.50;1.70;;;;;;;14.56;66.12;95304.50;5028545;28;20184;-70
2023/10/27 01:52:00;;;;;;;10.90;2.10;;;;;;;14.54;66.12;95302.09;5028467;28;20213;-70
2023/10/27 01:54:25;;;;;;;3.13;1.43;;;;;;;14.56;66.36;95293.97;5037135;28;20178;-70
2023/10/27 01:56:50;;;;;;;3.97;1.90;;;;;;;14.53;66.17;95287.31;5028495;28;20322;-70
2023/10/27 01:59:16;;;;;;;6.70;1.63;;;;;;;14.55;66.10;95290.53;5031123;28;20647;-70
2023/10/27 02:01:41;;;;;;;7.27;1.60;;;;;;;14.53;66.12;95295.22;5033703;28;20190;-70
2023/10/27 02:04:07;;;;;;;3.77;1.67;;;;;;;14.51;66.28;95291.22;5030352;28;20196;-69
2023/10/27 02:06:32;;;;;;;5.30;1.70;;;;;;;14.42;66.18;95282.81;5028495;28;20222;-69
2023/10/27 02:08:58;;;;;;;4.47;1.40;;;;;;;14.41;66.34;95282.03;5037032;28;20631;-70
2023/10/27 02:11:23;;;;;;;7.63;1.60;;;;;;;14.41;66.18;95289.94;5038073;28;20560;-70
2023/10/27 02:13:49;;;;;;;2.90;1.43;;;;;;;14.37;66.30;95290.56;5037718;28;20317;-70
2023/10/27 02:16:15;;;;;;;4.03;1.70;;;;;;;14.35;66.69;95290.81;5028312;28;20203;-70
2023/10/27 02:18:40;;;;;;;4.20;1.73;;;;;;;14.31;66.46;95281.72;5030054;28;20179;-70
2023/10/27 02:21:05;;;;;;;4.10;1.50;;;;;;;14.21;66.60;95279.63;5043773;28;20721;-70
2023/10/27 02:23:31;;;;;;;9.60;1.60;;;;;;;14.24;66.55;95276.53;5028290;28;20183;-70
2023/10/27 02:25:56;;;;;;;6.93;1.90;;;;;;;14.28;66.47;95279.56;5029870;28;20276;-71
2023/10/27 02:28:22;;;;;;;4.37;1.80;;;;;;;14.31;66.52;95271.19;5029487;28;20180;-70
2023/10/27 02:30:47;;;;;;;3.97;1.90;;;;;;;14.14;66.54;95268.38;5023537;28;20282;-70
2023/10/27 02:33:13;;;;;;;2.03;1.30;;;;;;;14.21;66.62;95274.38;5034787;28;20270;-70
2023/10/27 02:35:38;;;;;;;3.50;1.43;;;;;;;14.21;66.17;95274.38;5030383;28;20206;-69
2023/10/27 02:38:04;;;;;;;4.00;1.73;;;;;;;14.22;66.35;95275.16;5027840;28;20265;-70
2023/10/27 02:40:36;;;;;;;3.87;1.33;;;;;;;14.22;66.30;95277.78;5028029;28;20180;-70
2023/10/27 02:43:01;;;;;;;6.70;1.80;;;;;;;14.21;66.38;95276.19;5033508;28;20266;-72
2023/10/27 02:45:27;;;;;;;5.47;1.50;;;;;;;14.19;66.75;95278.22;5030419;28;20941;-69
2023/10/27 02:47:52;;;;;;;3.23;1.10;;;;;;;14.23;66.61;95274.97;5044265;28;20632;-70
2023/10/27 02:50:18;;;;;;;4.60;1.40;;;;;;;14.23;66.15;95260.97;5027783;28;20267;-71
2023/10/27 02:52:43;;;;;;;1.93;1.27;;;;;;;14.24;66.38;95265.22;5038813;28;20199;-68
2023/10/27 02:55:08;;;;;;;4.20;1.60;;;;;;;14.26;66.42;95250.78;5034993;28;20758;-71
2023/10/27 02:57:34;;;;;;;8.83;1.90;;;;;;;14.28;66.44;95255.84;5043304;28;20225;-71
2023/10/27 02:59:59;;;;;;;2.37;1.40;;;;;;;14.27;66.13;95257.66;5040134;28;20263;-70
2023/10/27 03:02:25;;;;;;;3.10;1.20;;;;;;;14.27;66.34;95260.28;5046455;28;20191;-69
2023/10/27 03:04:51;;;;;;;3.27;1.70;;;;;;;14.25;66.17;95257.06;5037616;28;20690;-70
2023/10/27 03:07:17;;;;;;;2.53;1.50;;;;;;;14.24;66.13;95265.22;5035506;28;20307;-70
2023/10/27 03:09:42;;;;;;;2.50;1.63;;;;;;;14.22;66.19;95262.00;5045400;28;20783;-69
2023/10/27 03:12:08;;;;;;;2.57;1.60;;;;;;;14.22;66.45;95260.19;5039419;28;20190;-70
2023/10/27 03:14:33;;;;;;;3.43;1.30;;;;;;;14.23;66.50;95259.16;5032284;28;20200;-71
2023/10/27 03:16:59;;;;;;;2.80;1.30;;;;;;;14.12;66.18;95250.16;5031656;28;20302;-71
2023/10/27 03:19:24;;;;;;;2.47;1.40;;;;;;;14.13;66.35;95243.06;5031154;28;20661;-70
2023/10/27 03:21:50;;;;;;;3.30;1.50;;;;;;;14.16;66.15;95242.63;5031430;28;20210;-69
2023/10/27 03:24:15;;;;;;;3.03;1.43;;;;;;;14.13;66.57;95241.25;5042425;28;20214;-70
2023/10/27 03:26:41;;;;;;;2.63;1.50;;;;;;;14.16;66.56;95247.09;5036837;28;20242;-70
2023/10/27 03:29:07;;;;;;;3.50;1.47;;;;;;;14.21;66.23;95244.56;5030575;28;20196;-68
2023/10/27 03:31:33;;;;;;;3.30;1.60;;;;;;;14.23;66.18;95243.34;5031552;28;20179;-70
2023/10/27 03:33:59;;;;;;;2.70;1.63;;;;;;;14.26;66.17;95248.16;5031670;28;20430;-70
2023/10/27 03:36:25;;;;;;;2.83;1.43;;;;;;;14.24;66.07;95260.75;5030769;28;20843;-70
2023/10/27 03:38:50;;;;;;;1.50;1.20;;;;;;;14.21;65.94;95255.13;5031203;28;20497;-70
2023/10/27 03:41:16;;;;;;;5.03;1.50;;;;;;;14.21;66.17;95255.94;5029885;28;20216;-70
2023/10/27 03:43:41;;;;;;;5.90;1.73;;;;;;;14.21;66.21;95249.84;5039316;28;20322;-70
2023/10/27 03:46:07;;;;;;;3.70;1.30;;;;;;;14.17;66.00;95238.97;5022436;28;20696;-69
2023/10/27 03:48:34;;;;;;;2.20;1.20;;;;;;;14.12;66.21;95233.53;5028416;28;20555;-69
2023/10/27 03:51:04;;;;;;;4.00;1.50;;;;;;;14.05;66.24;95224.94;5037506;28;20190;-69
2023/10/27 03:53:30;;;;;;;5.20;1.60;;;;;;;14.06;66.40;95226.53;5020086;28;20435;-71
2023/10/27 03:55:55;;;;;;;3.50;1.30;;;;;;;14.06;66.57;95229.19;5026066;28;20970;-70
2023/10/27 03:58:21;;;;;;;2.90;1.83;;;;;;;14.08;66.57;95227.91;5029604;28;20276;-69
2023/10/27 04:00:46;;;;;;;6.60;1.63;;;;;;;14.10;66.54;95228.50;5030328;28;20179;-69
2023/10/27 04:03:12;;;;;;;3.77;1.37;;;;;;;14.13;66.31;95227.25;5003772;28;20184;-70
2023/10/27 04:05:37;;;;;;;1.50;1.30;;;;;;;14.13;66.43;95221.97;5029275;28;20885;-70
2023/10/27 04:08:06;;;;;;;1.53;1.27;;;;;;;14.10;66.43;95231.13;5031267;28;20229;-69
2023/10/27 04:10:35;;;;;;;4.10;1.33;;;;;;;14.09;66.10;95231.38;5029194;28;20266;-70
2023/10/27 04:13:00;;;;;;;5.17;1.40;;;;;;;14.10;66.32;95225.09;5029368;28;20521;-71
2023/10/27 04:15:27;;;;;;;1.93;1.23;;;;;;;14.11;66.13;95229.31;5037461;28;20506;-68
2023/10/27 04:17:52;;;;;;;3.77;1.50;;;;;;;14.06;66.34;95232.59;5029588;28;20688;-70
2023/10/27 04:20:18;;;;;;;5.07;1.70;;;;;;;14.01;66.07;95234.28;5034410;28;20480;-68
2023/10/27 04:22:43;;;;;;;7.10;1.73;;;;;;;14.04;66.35;95226.78;5029280;28;20237;-70
2023/10/27 04:25:10;;;;;;;3.83;1.40;;;;;;;14.08;65.94;95235.03;5030327;28;20180;-70
2023/10/27 04:27:36;;;;;;;2.83;1.50;;;;;;;14.12;65.78;95230.91;5038113;28;20198;-70
2023/10/27 04:30:04;;;;;;;5.00;1.50;;;;;;;14.07;65.75;95234.22;5028858;28;20434;-69
2023/10/27 04:32:29;;;;;;;6.03;1.40;;;;;;;14.09;65.78;95234.78;5036685;28;20425;-69
2023/10/27 04:34:56;;;;;;;2.50;1.40;;;;;;;14.01;65.85;95234.28;5029573;28;20427;-70
2023/10/27 04:37:21;;;;;;;2.70;1.60;;;;;;;14.06;65.66;95237.06;5028924;28;20258;-69
2023/10/27 04:39:47;;;;;;;2.70;1.23;;;;;;;14.08;65.73;95233.19;5034138;28;20767;-69
2023/10/27 04:42:12;;;;;;;1.57;1.10;;;;;;;14.06;65.38;95235.25;5033004;28;20191;-71
2023/10/27 04:44:38;;;;;;;3.70;1.20;;;;;;;14.09;65.55;95237.44;5030792;28;20179;-70
2023/10/27 04:47:04;;;;;;;1.77;1.30;;;;;;;14.11;65.44;95242.50;5029601;28;20750;-71
2023/10/27 04:49:29;;;;;;;2.47;1.30;;;;;;;14.12;65.42;95246.72;5028790;28;20180;-70
2023/10/27 04:51:55;;;;;;;3.57;1.47;;;;;;;14.15;65.35;95235.75;5029283;28;20536;-70
2023/10/27 04:54:20;;;;;;;4.37;1.40;;;;;;;14.18;65.37;95234.47;5033679;28;20180;-69
2023/10/27 04:56:46;;;;;;;1.93;1.00;;;;;;;14.16;65.08;95232.06;5029201;28;20714;-70
2023/10/27 04:59:11;;;;;;;1.57;1.17;;;;;;;14.19;64.80;95226.38;5027777;28;20271;-70
2023/10/27 05:01:36;;;;;;;1.40;1.20;;;;;;;14.17;65.36;95233.69;5029310;28;20213;-70
2023/10/27 05:04:02;;;;;;;2.37;1.07;;;;;;;14.18;65.58;95232.66;5024841;28;20198;-71
2023/10/27 05:06:30;;;;;;;3.03;1.30;;;;;;;14.21;65.35;95242.75;5026432;28;20200;-71
2023/10/27 05:08:55;;;;;;;4.03;1.43;;;;;;;14.13;65.03;95235.97;5022349;28;20532;-69
2023/10/27 05:11:21;;;;;;;1.73;1.00;;;;;;;14.09;65.42;95244.53;5028597;28;20426;-70
2023/10/27 05:13:47;;;;;;;1.70;1.23;;;;;;;14.13;65.35;95245.69;5019940;28;20184;-71
2023/10/27 05:16:13;;;;;;;1.47;1.07;;;;;;;14.11;65.44;95247.75;5028292;28;21036;-70
2023/10/27 05:18:38;;;;;;;2.00;1.20;;;;;;;14.10;65.03;95249.56;5027929;28;20466;-72
2023/10/27 05:21:04;;;;;;;3.47;1.27;;;;;;;14.10;65.38;95246.16;5026393;28;20183;-70
2023/10/27 05:23:29;;;;;;;4.23;1.03;;;;;;;14.13;65.20;95241.25;5029557;28;20179;-70
2023/10/27 05:25:55;;;;;;;1.57;1.20;;;;;;;14.15;65.07;95250.75;5028959;28;20599;-70
2023/10/27 05:28:20;;;;;;;2.13;1.30;;;;;;;14.14;65.42;95255.19;5028132;28;20176;-70
2023/10/27 05:30:46;;;;;;;3.37;1.40;;;;;;;14.14;65.71;95249.94;5027849;28;20230;-69
2023/10/27 05:33:12;;;;;;;1.87;1.37;;;;;;;14.09;66.06;95257.72;5027135;28;20188;-70
2023/10/27 05:35:38;;;;;;;2.50;1.30;;;;;;;14.07;66.08;95251.84;5027000;28;20951;-70
2023/10/27 05:38:03;;;;;;;2.70;1.77;;;;;;;14.06;66.10;95261.56;5023028;28;20788;-69
2023/10/27 05:40:31;;;;;;;3.63;1.30;;;;;;;14.01;66.18;95256.19;5032001;28;20180;-70
2023/10/27 05:42:57;;;;;;;2.63;1.40;;;;;;;14.06;66.31;95263.41;5036925;28;20187;-70
2023/10/27 05:45:23;;;;;;;1.73;1.00;;;;;;;14.02;66.74;95265.69;5025979;28;20476;-70
2023/10/27 05:47:48;;;;;;;2.80;1.47;;;;;;;14.07;66.69;95260.53;5031132;28;20879;-70
2023/10/27 05:50:14;;;;;;;1.47;1.37;;;;;;;14.08;66.49;95271.91;5027788;28;20659;-71
2023/10/27 05:52:39;;;;;;;2.30;1.60;;;;;;;14.06;66.95;95271.31;5044198;28;20190;-71
2023/10/27 05:55:05;;;;;;;7.50;1.40;;;;;;;14.08;66.92;95266.63;5022362;28;20180;-71
2023/10/27 05:57:31;;;;;;;7.53;1.43;;;;;;;14.11;66.70;95282.78;5027470;28;20300;-71
2023/10/27 05:59:57;;;;;;;3.80;1.47;;;;;;;14.08;66.86;95291.13;5027278;28;20183;-72
2023/10/27 06:02:22;;;;;;;2.50;1.63;;;;;;;14.09;66.82;95299.84;5027941;28;20419;-71
2023/10/27 06:04:47;;;;;;;3.07;1.30;;;;;;;14.05;67.18;95298.69;5026773;28;20179;-71
2023/10/27 06:07:15;;;;;;;3.40;1.50;;;;;;;14.08;67.24;95306.13;5035729;28;20707;-72
2023/10/27 06:09:41;;;;;;;3.13;1.60;;;;;;;13.95;67.29;95304.44;5044548;28;20541;-71
2023/10/27 06:12:07;;;;;;;3.93;1.30;;;;;;;13.84;68.08;95311.28;5037214;28;20464;-70
2023/10/27 06:14:32;;;;;;;2.60;1.10;;;;;;;13.91;67.66;95319.88;5036495;28;20187;-71
2023/10/27 06:16:58;;;;;;;1.30;1.20;;;;;;;13.91;68.14;95313.84;5036307;28;20557;-71
2023/10/27 06:19:25;;;;;;;1.23;1.10;;;;;;;13.94;67.87;95324.72;5037013;28;20186;-71
2023/10/27 06:21:50;;;;;;;2.80;1.10;;;;;;;13.82;67.98;95327.25;5039818;28;20199;-72
2023/10/27 06:24:15;;;;;;;3.63;1.67;;;;;;;13.86;68.21;95332.91;5029484;28;20516;-71
2023/10/27 06:26:41;;;;;;;1.20;1.10;;;;;;;13.93;68.14;95338.91;5036371;28;20207;-71
2023/10/27 06:29:07;;;;;;;3.53;1.20;;;;;;;13.96;67.83;95338.47;5028543;28;20227;-72
2023/10/27 06:31:32;;;;;;;1.30;1.17;;;;;;;13.95;67.76;95341.31;5029259;28;20270;-70
2023/10/27 06:33:58;;;;;;;2.80;1.13;;;;;;;14.03;67.72;95345.50;5031133;28;20937;-71
2023/10/27 06:36:25;;;;;;;1.57;1.20;;;;;;;13.98;67.97;95357.50;5027734;28;20290;-71
2023/10/27 06:38:50;;;;;;;1.10;1.00;;;;;;;13.85;68.28;95352.38;5028535;28;20179;-70
2023/10/27 06:41:16;;;;;;;1.50;1.07;;;;;;;13.92;68.19;95352.31;5035738;28;20533;-70
2023/10/27 06:43:42;;;;;;;5.47;1.07;;;;;;;13.99;67.91;95360.94;5033158;28;20179;-71
2023/10/27 06:46:07;;;;;;;1.93;1.10;;;;;;;14.00;68.09;95354.63;5026372;28;20302;-73
2023/10/27 06:48:33;;;;;;;1.40;1.10;;;;;;;14.02;67.71;95363.13;5028177;28;20495;-70
2023/10/27 06:50:58;;;;;;;1.30;0.90;;;;;;;14.07;67.62;95357.22;5032548;28;20211;-71
2023/10/27 06:53:24;;;;;;;4.70;1.10;;;;;;;14.05;67.69;95357.41;5030222;28;20268;-71
2023/10/27 06:55:49;;;;;;;1.10;0.90;;;;;;;14.12;67.58;95362.59;5030009;28;20273;-71
2023/10/27 06:58:15;;;;;;;1.83;1.10;;;;;;;14.07;67.54;95355.38;5028951;28;20737;-71
2023/10/27 07:00:40;;;;;;;2.17;1.20;;;;;;;14.12;67.18;95352.88;5027832;28;20730;-70
2023/10/27 07:03:05;;;;;;;1.60;1.10;;;;;;;14.18;67.54;95360.91;5029746;28;20267;-70
2023/10/27 07:05:31;;;;;;;1.77;1.00;;;;;;;14.19;67.36;95367.78;5028033;28;20199;-71
2023/10/27 07:07:56;;;;;;;2.13;0.80;;;;;;;14.20;67.05;95364.97;5028086;28;20180;-70
2023/10/27 07:10:22;;;;;;;3.43;1.10;;;;;;;14.13;67.02;95364.22;5036217;28;20183;-71
2023/10/27 07:12:47;;;;;;;1.63;0.93;;;;;;;14.19;67.08;95379.16;5027703;28;20219;-71
2023/10/27 07:15:13;;;;;;;1.40;0.90;;;;;;;14.21;66.79;95386.81;5038907;28;20203;-72
2023/10/27 07:17:38;;;;;;;2.23;0.83;;;;;;;14.17;67.21;95386.47;5029566;28;20211;-72
2023/10/27 07:20:04;;;;;;;1.03;0.90;;;;;;;14.18;67.09;95387.25;5032282;28;20184;-72
2023/10/27 07:22:30;;;;;;;1.20;0.90;;;;;;;14.21;66.80;95384.19;5029190;28;20556;-71
2023/10/27 07:24:55;;;;;;;1.30;0.90;;;;;;;14.28;66.81;95383.09;5040230;28;20425;-72
2023/10/27 07:27:21;;;;;;;1.17;0.97;;;;;;;14.28;66.75;95383.09;5027660;28;20745;-71
2023/10/27 07:29:46;;;;;;;1.73;0.90;;;;;;;14.36;66.77;95384.63;5027108;28;20196;-70
2023/10/27 07:32:12;;;;;;;2.70;1.00;;;;;;;14.41;66.72;95391.88;5038711;28;20211;-70
2023/10/27 07:34:37;;;;;;;1.10;0.80;;;;;;;14.46;66.55;95392.03;5028593;28;20184;-71
2023/10/27 07:37:04;;;;;;;1.10;0.70;;;;;;;14.49;66.36;95388.94;5026987;28;20286;-70
2023/10/27 07:39:30;;;;;;;2.67;0.70;;;;;;;14.39;66.57;95400.00;5039654;28;20270;-70
2023/10/27 07:41:56;;;;;;;1.80;0.73;;;;;;;14.51;66.39;95410.59;5033166;28;20988;-72
2023/10/27 07:44:21;;;;;;;2.47;0.60;;;;;;;14.47;66.65;95409.44;5033657;28;20175;-70
2023/10/27 07:46:47;;;;;;;1.13;0.70;;;;;;;14.53;66.56;95411.19;5036522;28;20568;-71
2023/10/27 07:49:13;;;;;;;1.20;0.80;;;;;;;14.58;66.35;95418.44;5036890;28;20287;-70
2023/10/27 07:51:38;;;;;;;1.00;0.80;;;;;;;14.63;66.20;95415.94;5030197;28;20184;-71
2023/10/27 07:54:04;;;;;;;2.60;0.80;;;;;;;14.57;66.14;95425.56;5030799;28;20330;-71
2023/10/27 07:56:32;;;;;;;0.90;0.70;;;;;;;14.64;66.16;95427.28;5032119;28;20282;-71
2023/10/27 07:58:58;;;;;;;1.00;0.70;;;;;;;14.69;65.93;95424.84;5028702;28;20233;-71
2023/10/27 08:01:24;;;;;;;0.90;0.60;;;;;;;14.71;65.78;95428.84;5044265;28;20418;-71
2023/10/27 08:03:50;;;;;;;2.33;0.70;;;;;;;14.69;65.58;95435.38;5033497;28;20187;-71
2023/10/27 08:06:15;;;;;;;1.33;0.60;;;;;;;14.52;65.79;95440.41;5030674;28;20211;-71
2023/10/27 08:08:41;;;;;;;1.53;0.60;;;;;;;14.52;65.99;95440.41;5038782;28;20415;-71
2023/10/27 08:11:07;;;;;;;0.93;0.63;;;;;;;14.43;65.97;95448.59;5035864;28;20207;-70
2023/10/27 08:13:33;;;;;;;0.80;0.50;;;;;;;14.52;65.98;95457.03;5033133;28;20183;-71
2023/10/27 08:15:59;;;;;;;6.40;0.63;;;;;;;14.55;65.78;95467.13;5040553;28;20583;-73
2023/10/27 08:18:25;;;;;;;0.80;0.50;;;;;;;14.58;65.54;95460.59;5041864;28;20978;-70
2023/10/27 08:20:52;;;;;;;5.03;0.60;;;;;;;14.66;65.55;95475.31;5041166;28;20422;-71
2023/10/27 08:23:17;;;;;;;0.80;0.60;;;;;;;14.72;65.44;95477.91;5030198;28;20180;-71
2023/10/27 08:25:43;;;;;;;1.20;0.60;;;;;;;14.65;65.51;95492.97;5035297;28;20426;-71
2023/10/27 08:28:09;;;;;;;1.53;0.83;;;;;;;14.74;65.16;95483.00;5041901;28;20207;-71
2023/10/27 08:30:34;;;;;;;0.90;0.53;;;;;;;14.69;65.21;95491.53;5031281;28;20341;-71
2023/10/27 08:33:00;;;;;;;0.90;0.50;;;;;;;14.76;64.98;95498.56;5032420;28;20903;-71
2023/10/27 08:35:25;;;;;;;0.90;0.57;;;;;;;14.80;65.17;95497.91;5030209;28;20550;-71
2023/10/27 08:37:50;;;;;;;1.13;0.50;;;;;;;14.84;64.96;95506.19;5029421;28;20203;-71
2023/10/27 08:40:17;;;;;;;0.80;0.50;;;;;;;14.83;64.82;95518.56;5030229;28;20187;-71
2023/10/27 08:42:44;;;;;;;0.97;0.53;;;;;;;14.84;64.93;95514.09;5037990;28;20187;-70
2023/10/27 08:45:10;;;;;;;1.63;0.60;;;;;;;14.85;64.95;95510.44;5036066;28;20414;-71
2023/10/27 08:47:36;;;;;;;0.70;0.50;;;;;;;14.84;65.12;95516.72;5031548;28;20516;-70
2023/10/27 08:50:04;;;;;;;0.90;0.50;;;;;;;14.81;65.15;95519.78;5040516;28;20253;-71
2023/10/27 08:52:33;;;;;;;2.30;0.50;;;;;;;14.78;65.37;95528.97;5034028;28;20426;-72
2023/10/27 08:55:02;;;;;;;1.13;0.70;;;;;;;14.74;65.33;95520.69;5031343;28;20437;-71
2023/10/27 08:57:27;;;;;;;0.80;0.50;;;;;;;14.79;65.54;95522.66;5033704;28;20937;-72
2023/10/27 08:59:54;;;;;;;1.00;0.60;;;;;;;14.84;65.36;95524.63;5038910;28;20501;-71
2023/10/27 09:02:30;;;;;;;2.40;0.80;;;;;;;14.86;65.40;95526.06;5038413;28;20188;-71
2023/10/27 09:05:00;;;;;;;0.80;0.50;;;;;;;14.86;65.12;95518.13;5033177;28;20439;-73
2023/10/27 09:07:25;;;;;;;0.80;0.50;;;;;;;14.82;65.05;95524.88;5034247;28;20489;-72
2023/10/27 09:09:51;;;;;;;1.30;0.50;;;;;;;14.84;65.12;95536.00;5028885;28;20426;-71
2023/10/27 09:12:23;;;;;;;1.63;0.60;;;;;;;14.80;65.01;95541.94;5036204;28;20259;-73
2023/10/27 09:15:00;;;;;;;2.30;0.50;;;;;;;14.82;65.28;95527.50;5029190;28;20245;-72
2023/10/27 09:17:29;;;;;;;0.80;0.50;;;;;;;14.78;65.60;95530.81;5036126;28;20465;-72
2023/10/27 09:20:06;;;;;;;1.07;0.53;;;;;;;14.79;65.54;95535.84;5030418;28;21006;-71
2023/10/27 09:22:31;;;;;;;2.00;0.50;;;;;;;14.76;65.63;95533.66;5036628;28;20421;-71
2023/10/27 09:25:17;;;;;;;1.13;0.53;;;;;;;14.79;65.81;95540.34;5036651;28;20458;-72
2023/10/27 09:27:45;;;;;;;1.20;0.80;;;;;;;14.76;66.28;95541.56;5028606;28;20235;-72
2023/10/27 09:30:24;;;;;;;0.90;0.60;;;;;;;14.79;66.58;95541.13;5037186;28;20440;-72
2023/10/27 09:32:50;;;;;;;1.93;0.80;;;;;;;14.71;66.67;95551.97;5030375;28;20446;-70
2023/10/27 09:35:18;;;;;;;1.00;0.80;;;;;;;14.67;67.38;95550.75;5034928;28;20439;-71
2023/10/27 09:37:43;;;;;;;1.03;0.70;;;;;;;14.58;67.70;95551.06;5028705;28;20218;-72
2023/10/27 09:40:11;;;;;;;2.60;0.90;;;;;;;14.59;67.61;95551.84;5029021;28;20789;-73
2023/10/27 09:42:37;;;;;;;1.20;0.80;;;;;;;14.74;67.84;95560.25;5028985;28;20176;-71
2023/10/27 09:45:13;;;;;;;1.53;0.70;;;;;;;14.82;67.73;95561.78;5032209;28;20445;-71
2023/10/27 09:47:49;;;;;;;3.37;0.80;;;;;;;14.82;67.15;95561.78;5033408;28;20437;-71
2023/10/27 09:50:21;;;;;;;3.97;0.97;;;;;;;14.88;67.34;95573.28;5032981;28;20797;-71
2023/10/27 09:52:48;;;;;;;2.67;1.00;;;;;;;14.78;67.55;95578.28;5032944;28;20939;-72
2023/10/27 09:55:14;;;;;;;1.77;0.97;;;;;;;14.69;67.91;95590.91;5035361;28;20467;-71
2023/10/27 09:57:41;;;;;;;1.80;1.00;;;;;;;14.74;68.01;95596.38;5042079;28;20546;-71
2023/10/27 10:00:08;;;;;;;2.10;0.93;;;;;;;14.85;67.84;95590.38;5028307;28;20667;-71
2023/10/27 10:02:35;;;;;;;1.63;1.20;;;;;;;14.85;68.03;95611.47;5042504;28;20471;-70
2023/10/27 10:05:01;;;;;;;3.40;0.90;;;;;;;14.90;67.95;95610.81;5029194;28;20433;-72
2023/10/27 10:07:52;;;;;;;2.63;0.90;;;;;;;14.96;67.38;95603.84;5028657;28;20866;-71
2023/10/27 10:10:32;;;;;;;2.90;1.30;;;;;;;15.09;67.33;95614.25;5028341;28;20213;-72
2023/10/27 10:13:00;;;;;;;2.20;0.90;;;;;;;15.06;67.05;95609.41;5028480;28;20441;-71
2023/10/27 10:15:27;;;;;;;1.93;1.00;;;;;;;15.14;67.19;95611.75;5036936;28;20472;-72
2023/10/27 10:17:53;;;;;;;2.10;1.07;;;;;;;15.18;66.52;95612.13;5028034;28;20488;-72
2023/10/27 10:20:41;;;;;;;2.80;1.00;;;;;;;14.94;66.26;95611.97;5008619;28;20423;-71
2023/10/27 10:23:07;;;;;;;2.17;1.00;;;;;;;15.11;66.22;95617.50;5034628;28;20230;-70
2023/10/27 10:25:33;;;;;;;2.37;0.80;;;;;;;15.17;65.39;95613.94;5031908;28;20868;-70
2023/10/27 10:28:07;;;;;;;2.80;1.00;;;;;;;15.20;65.38;95610.88;5037088;28;20192;-71
2023/10/27 10:30:33;;;;;;;3.53;1.07;;;;;;;15.43;65.49;95608.59;5030017;28;20432;-70
2023/10/27 10:33:14;;;;;;;4.80;1.40;;;;;;;16.02;65.43;95603.56;5036055;28;20426;-71
2023/10/27 10:35:40;;;;;;;1.37;1.10;;;;;;;16.55;63.54;95604.59;5033069;28;20250;-72
2023/10/27 10:38:21;;;;;;;1.93;0.90;;;;;;;17.18;61.29;95610.22;5028816;28;20608;-72
2023/10/27 10:40:51;;;;;;;2.13;1.00;;;;;;;17.92;59.67;95597.28;5027984;28;20429;-71
2023/10/27 10:43:30;;;;;;;2.33;1.20;;;;;;;18.66;56.30;95590.25;5037217;28;20431;-71
2023/10/27 10:45:58;;;;;;;9.07;1.50;;;;;;;19.21;54.47;95587.84;5027298;28;20446;-72
2023/10/27 10:48:25;;;;;;;3.60;1.00;;;;;;;19.70;52.95;95603.81;5028542;28;20814;-71
2023/10/27 10:50:53;;;;;;;3.47;1.00;;;;;;;19.94;51.62;95590.25;5040763;28;20426;-72
2023/10/27 10:53:21;;;;;;;2.40;0.90;;;;;;;20.27;49.82;95585.78;5032765;28;20417;-71
2023/10/27 10:55:47;;;;;;;2.90;1.10;;;;;;;20.31;48.79;95588.72;5034635;28;20509;-71
2023/10/27 10:58:33;;;;;;;2.30;1.00;;;;;;;20.61;48.49;95590.00;5035413;28;20488;-71
2023/10/27 11:00:59;;;;;;;3.13;0.87;;;;;;;20.57;47.80;95587.06;5031216;28;20437;-72
2023/10/27 11:03:28;;;;;;;4.67;1.10;;;;;;;20.54;47.86;95587.59;5033882;28;20418;-71
2023/10/27 11:05:59;;;;;;;3.23;1.10;;;;;;;20.77;46.51;95578.44;5036075;28;20208;-71
2023/10/27 11:08:27;;;;;;;3.93;1.13;;;;;;;20.83;45.59;95590.72;5029723;28;20420;-71
2023/10/27 11:11:05;;;;;;;4.27;1.10;;;;;;;20.44;45.29;95592.81;5026537;28;20438;-72
2023/10/27 11:13:33;;;;;;;8.43;1.53;;;;;;;20.52;46.62;95585.16;5037011;28;20437;-71
2023/10/27 11:16:00;;;;;;;3.03;0.80;;;;;;;20.81;45.68;95574.22;5037512;28;20438;-72
2023/10/27 11:18:31;;;;;;;2.90;1.10;;;;;;;20.87;44.48;95575.03;5035945;28;20528;-71
2023/10/27 11:20:57;;;;;;;2.50;0.90;;;;;;;21.15;44.47;95571.19;5031860;28;20517;-72
2023/10/27 11:23:26;;;;;;;3.67;1.20;;;;;;;21.30;44.08;95581.09;5031695;28;20433;-72
2023/10/27 11:26:00;;;;;;;3.20;1.10;;;;;;;21.33;43.54;95572.59;5038566;28;20457;-71
2023/10/27 11:28:26;;;;;;;3.90;1.10;;;;;;;21.68;43.05;95569.50;5041307;28;20478;-72
2023/10/27 11:31:25;;;;;;;5.37;1.33;;;;;;;22.00;42.80;95568.50;5032018;28;20434;-71